• Join FlightAware (Why Join?)
  • Login
  • US Flag 
03:27AM EDT


 

Airport Tracker/Info


-or-


 

Live Flight TrackerFlight Track Log ✈ SKW6520 ✈ 29-Apr-2013 ✈ KORD - KMSP

Flight Track Log - Related Links

Times and Time Zones

All times are in EDT time to prevent confusion due to time zone crossing. See the SKW6520 flight status page for this flight to view local times or setup timezone preferences in your user account.

Time Position Orientation Groundspeed Altitude Reporting Facility
EDT Latitude Longitude Course Direction KTS MPH feet Rate Location/Type
01:25PM 42.2887 -88.4263 309° West  Level Estimated
01:26PM 42.3499 -88.5308 308° West  Level Estimated
01:27PM 42.4109 -88.6356 308° West  Level Estimated
01:28PM 42.4719 -88.7405 308° West  Level Estimated
01:29PM 42.5327 -88.8456 308° West  Level Estimated
01:30PM 42.5935 -88.9510 308° West  Level Estimated
01:31PM 42.6541 -89.0565 308° West  Level Estimated
01:32PM 42.7147 -89.1623 308° West  Level Estimated
01:33PM 42.7752 -89.2683 308° West  Level Estimated
01:34PM 42.8355 -89.3745 308° West  Level Estimated
01:35PM 42.8958 -89.4808 308° West  Level Estimated
01:36PM 42.9560 -89.5874 308° West  Level Estimated
01:37PM 43.0160 -89.6942 308° West  Level Estimated
01:38PM 43.0760 -89.8012 308° West  Level Estimated
01:39PM 43.1359 -89.9084 307° West  Level Estimated
01:40PM 43.1956 -90.0159 307° West  Level Estimated
01:41PM 43.2553 -90.1235 307° West  Level Estimated
01:42PM 43.3149 -90.2314 307° West  Level Estimated
01:43PM 43.3744 -90.3394 307° West  Level Estimated
01:44PM 43.4337 -90.4477 307° West  Level Estimated
01:45PM 43.4930 -90.5562 307° West  Level Estimated
01:46PM 43.5521 -90.6649 307° West  Level Estimated
01:47PM 43.6112 -90.7738 307° West  Level Estimated
01:48PM 43.6702 -90.8829 307° West  Level Estimated
01:49PM 43.7290 -90.9922 307° West  Level Estimated
01:50PM 43.7877 -91.1018 307° West  Level Estimated
01:51PM 43.8464 -91.2116 307° West  Level Estimated
01:52PM 43.9049 -91.3215 306° West  Level Estimated
01:53PM 43.9633 -91.4317 306° West  Level Estimated
01:54PM 44.0217 -91.5422 306° West  Level Estimated
01:55PM 44.0799 -91.6528 306° West  Level Estimated
01:56PM 44.1380 -91.7636 306° West  Level Estimated
01:57PM 44.1960 -91.8747 306° West  Level Estimated
01:58PM 44.2539 -91.9860 306° West  Level Estimated
01:59PM 44.3117 -92.0975 306° West  Level Estimated
02:00PM 44.3693 -92.2093 306° West  Level Estimated
02:01PM 44.4269 -92.3212 306° West  Level Estimated
02:02PM 44.4844 -92.4334 306° West  Level Estimated
02:03PM 44.5417 -92.5458 306° West  Level Estimated
02:04PM 44.5990 -92.6584 306° West  Level Estimated
02:05PM 44.6561 -92.7712 305° West  Level Estimated
02:06PM 44.7131 -92.8843 305° West  Level Estimated
02:07PM 44.7700 -92.9975 305° West  Level Estimated
02:08PM 44.8268 -93.1110 305° West  Level Estimated
02:09PM 44.8820 -93.2218 305° West  Level Estimated
02:10PM 44.8820 -93.2218 35° Northeast  Level Estimated
02:11PM 44.8820 -93.2218 35° Northeast  Level Estimated
02:12PM 44.8820 -93.2218 35° Northeast  Level Estimated
02:13PM 44.8820 -93.2218 35° Northeast  Level Estimated
02:14PM 44.8820 -93.2218 35° Northeast  Level Estimated
02:15PM 44.8820 -93.2218 35° Northeast  Level Estimated
02:16PM 44.8820 -93.2218 35° Northeast  Level Estimated
02:17PM 44.8820 -93.2218 35° Northeast  Level Estimated
02:18PM 44.8820 -93.2218 35° Northeast  Level Estimated
02:19PM 44.8820 -93.2218 35° Northeast  Level Estimated
02:20PM 44.8820 -93.2218 35° Northeast  Level Estimated
02:21PM 44.8820 -93.2218 35° Northeast  Level Estimated
02:22PM 44.8820 -93.2218 35° Northeast  Level Estimated